createdAt,value
2023-01-19T00:01:05.897Z,14.5
2023-01-19T00:11:06.013Z,14.8
2023-01-19T00:21:05.888Z,14.6
2023-01-19T00:31:06.043Z,14.5
2023-01-19T00:41:05.875Z,14.4
2023-01-19T00:51:06.028Z,14.4
2023-01-19T01:01:05.900Z,14.3
2023-01-19T01:11:05.996Z,14.2
2023-01-19T01:21:06.076Z,14.2
2023-01-19T01:31:06.003Z,14.1
2023-01-19T01:41:06.065Z,14
2023-01-19T01:51:06.013Z,14
2023-01-19T02:01:06.092Z,13.9
2023-01-19T02:11:06.017Z,13.8
2023-01-19T02:21:06.067Z,13.8
2023-01-19T02:31:05.997Z,13.8
2023-01-19T02:41:06.059Z,13.8
2023-01-19T02:51:06.186Z,13.7
2023-01-19T03:01:06.155Z,13.7
2023-01-19T03:11:06.174Z,13.6
2023-01-19T03:21:06.051Z,13.6
2023-01-19T03:31:06.200Z,13.6
2023-01-19T03:41:06.038Z,13.6
2023-01-19T03:51:06.164Z,13.5
2023-01-19T04:01:06.080Z,13.6
2023-01-19T04:11:06.167Z,15.7
2023-01-19T04:21:06.240Z,15.5
2023-01-19T04:31:06.228Z,15.1
2023-01-19T04:41:06.233Z,14.7
2023-01-19T04:51:06.149Z,14.5
2023-01-19T05:01:06.243Z,14.2
2023-01-19T05:11:06.153Z,14.6
2023-01-19T05:21:06.226Z,16.4
2023-01-19T05:31:06.423Z,16
2023-01-19T05:41:06.208Z,15.5
2023-01-19T05:51:06.347Z,15.1
2023-01-19T06:01:06.270Z,15.7
2023-01-19T06:11:06.335Z,16.9
2023-01-19T06:21:06.206Z,16.3
2023-01-19T06:31:06.417Z,15.7
2023-01-19T06:41:06.211Z,15.3
2023-01-19T06:51:06.343Z,16.2
2023-01-19T07:01:06.481Z,17.2
2023-01-19T07:11:22.072Z,16.5
2023-01-19T07:21:06.391Z,16
2023-01-19T07:31:06.523Z,15.6
2023-01-19T07:41:06.380Z,17.4
2023-01-19T07:51:06.311Z,17.3
2023-01-19T08:01:06.576Z,16.5
2023-01-19T08:11:06.395Z,16
2023-01-19T08:21:06.394Z,16.8
2023-01-19T08:31:19.087Z,17.6
2023-01-19T08:41:06.382Z,17
2023-01-19T08:51:06.494Z,16.4
2023-01-19T09:01:06.366Z,16
2023-01-19T09:11:06.496Z,15.7
2023-01-19T09:21:06.360Z,15.5
2023-01-19T09:31:06.639Z,15.2
2023-01-19T09:41:06.572Z,15.1
2023-01-19T09:51:06.491Z,15.1
2023-01-19T10:01:06.649Z,15.1
2023-01-19T10:11:06.468Z,17.1
2023-01-19T10:21:06.538Z,16.8
2023-01-19T10:31:06.599Z,16.3
2023-01-19T10:41:06.543Z,16
2023-01-19T10:51:06.546Z,15.6
2023-01-19T11:01:06.647Z,15.5
2023-01-19T11:11:06.658Z,15.3
2023-01-19T11:21:06.550Z,15.2
2023-01-19T11:31:06.724Z,15.2
2023-01-19T11:41:06.549Z,15.1
2023-01-19T11:51:06.642Z,15.2
2023-01-19T12:01:06.568Z,15.3
2023-01-19T12:11:06.669Z,15.3
2023-01-19T12:21:06.538Z,15.4
2023-01-19T12:31:06.725Z,15.3
2023-01-19T12:41:06.738Z,15.5
2023-01-19T12:51:06.665Z,15.6
2023-01-19T13:01:06.967Z,15.5
2023-01-19T13:11:06.695Z,15.4
2023-01-19T13:21:06.740Z,15.4
2023-01-19T13:31:06.782Z,15.4
2023-01-19T13:41:06.704Z,15.4
2023-01-19T13:51:06.684Z,15.4
2023-01-19T14:01:06.771Z,15.4
2023-01-19T14:11:06.843Z,15.4
2023-01-19T14:21:06.734Z,15.4
2023-01-19T14:31:06.892Z,15.5
2023-01-19T14:41:06.707Z,15.3
2023-01-19T14:51:06.823Z,15.3
2023-01-19T15:01:06.857Z,15.4
2023-01-19T15:11:06.841Z,15.4
2023-01-19T15:21:07.097Z,15.2
2023-01-19T15:31:06.849Z,15.2
2023-01-19T15:41:06.892Z,15.1
2023-01-19T15:51:06.823Z,15
2023-01-19T16:01:07.032Z,14.9
2023-01-19T16:11:06.817Z,14.9
2023-01-19T16:21:06.869Z,14.9
2023-01-19T16:31:06.796Z,14.9
2023-01-19T16:41:06.873Z,16.4
2023-01-19T16:51:07.003Z,17.3
2023-01-19T17:01:06.941Z,16.5
2023-01-19T17:11:06.986Z,16.1
2023-01-19T17:21:06.883Z,15.9
2023-01-19T17:31:07.094Z,15.6
2023-01-19T17:41:06.851Z,15.7
2023-01-19T17:51:06.994Z,15.6
2023-01-19T18:01:07.181Z,15.3
2023-01-19T18:11:06.976Z,15.2
2023-01-19T18:21:07.070Z,15
2023-01-19T18:31:07.134Z,14.9
2023-01-19T18:41:07.046Z,14.8
2023-01-19T18:51:06.960Z,14.7
2023-01-19T19:01:07.139Z,14.6
2023-01-19T19:11:06.969Z,14.6
2023-01-19T19:21:07.047Z,14.5
2023-01-19T19:31:07.278Z,14.4
2023-01-19T19:41:07.035Z,14.4
2023-01-19T19:51:17.314Z,14.4
2023-01-19T20:01:07.129Z,14.3
2023-01-19T20:11:07.159Z,14.2
2023-01-19T20:21:07.030Z,14.2
2023-01-19T20:31:07.157Z,15.6
2023-01-19T20:41:07.205Z,17.4
2023-01-19T20:51:07.144Z,16.7
2023-01-19T21:01:07.299Z,16.3
2023-01-19T21:11:07.154Z,15.8
2023-01-19T21:21:10.628Z,15.5
2023-01-19T21:31:07.124Z,15.6
2023-01-19T21:41:07.237Z,17.6
2023-01-19T21:51:07.114Z,17.1
2023-01-19T22:01:07.275Z,16.6
2023-01-19T22:11:07.254Z,16.1
2023-01-19T22:21:07.309Z,15.8
2023-01-19T22:31:07.466Z,15.5
2023-01-19T22:41:07.303Z,15.4
2023-01-19T22:51:07.246Z,15.1
2023-01-19T23:01:07.425Z,15.2
2023-01-19T23:11:07.224Z,15.1
2023-01-19T23:21:07.316Z,15.1
2023-01-19T23:31:07.288Z,14.9
2023-01-19T23:41:07.282Z,14.9
2023-01-19T23:51:07.413Z,14.8
